Time;durP1;ratioP1;P1;durP2;ratioP2;P2;SDS_P1;SDS_P2;PMS_P1;PMS_P2;Temp;Humidity;BMP_temperature;BMP_pressure;BME280_temperature;BME280_humidity;BME280_pressure;Samples;Min_cycle;Max_cycle;Signal;HPM_P1;HPM_P2
2021/05/15 00:01:21;;;;;;;1.95;0.80;;;;;;;10.00;73.77;98186.41;5057394;28;20025;-65
2021/05/15 00:03:46;;;;;;;1.80;0.70;;;;;;;10.06;73.36;98190.94;5051526;28;20386;-65
2021/05/15 00:06:11;;;;;;;0.98;0.65;;;;;;;10.07;73.58;98200.72;5061380;28;20039;-65
2021/05/15 00:08:37;;;;;;;2.05;0.82;;;;;;;10.10;72.78;98181.38;5053086;28;20098;-65
2021/05/15 00:11:02;;;;;;;2.72;0.80;;;;;;;10.22;72.86;98190.47;5065802;28;20115;-65
2021/05/15 00:13:28;;;;;;;2.60;1.10;;;;;;;10.18;73.04;98193.81;5088517;28;20484;-65
2021/05/15 00:15:53;;;;;;;1.95;0.70;;;;;;;10.16;73.00;98201.28;5066460;28;20538;-66
2021/05/15 00:18:18;;;;;;;4.85;0.73;;;;;;;10.14;73.00;98189.88;5065936;28;20023;-65
2021/05/15 00:20:44;;;;;;;1.15;0.68;;;;;;;10.16;72.84;98187.78;5072705;28;20052;-66
2021/05/15 00:23:09;;;;;;;3.65;0.90;;;;;;;10.19;72.44;98199.00;5079320;28;20234;-65
2021/05/15 00:25:35;;;;;;;1.23;0.60;;;;;;;10.16;72.73;98194.00;5069416;28;20025;-65
2021/05/15 00:28:00;;;;;;;0.70;0.57;;;;;;;10.13;72.91;98194.44;5075771;28;20037;-65
2021/05/15 00:30:26;;;;;;;1.52;0.70;;;;;;;10.10;73.10;98186.78;5059776;28;20028;-65
2021/05/15 00:32:51;;;;;;;0.45;0.40;;;;;;;9.94;73.43;98182.69;5072860;28;20116;-65
2021/05/15 00:35:16;;;;;;;1.35;0.40;;;;;;;9.93;73.81;98193.69;5059608;28;20369;-65
2021/05/15 00:37:42;;;;;;;1.58;0.47;;;;;;;9.73;73.82;98167.59;5043207;28;20553;-65
2021/05/15 00:40:12;;;;;;;2.95;0.50;;;;;;;9.79;73.95;98187.53;5064679;28;20024;-65
2021/05/15 00:42:38;;;;;;;1.00;0.47;;;;;;;9.84;73.97;98191.25;5074492;28;20035;-65
2021/05/15 00:45:06;;;;;;;1.70;0.50;;;;;;;9.77;74.40;98184.19;5063410;28;20032;-66
2021/05/15 00:47:31;;;;;;;2.25;0.63;;;;;;;9.71;74.46;98188.59;5083491;28;20024;-66
2021/05/15 00:49:56;;;;;;;0.70;0.40;;;;;;;9.60;74.53;98178.47;5064299;28;20027;-66
2021/05/15 00:52:22;;;;;;;0.77;0.40;;;;;;;9.60;75.03;98189.25;5068497;28;20478;-65
2021/05/15 00:54:51;;;;;;;2.10;0.60;;;;;;;9.50;74.78;98157.28;5056565;28;20100;-65
2021/05/15 00:57:17;;;;;;;1.08;0.50;;;;;;;9.52;75.26;98170.59;5092304;28;20027;-65
2021/05/15 00:59:42;;;;;;;1.35;0.57;;;;;;;9.47;75.42;98173.09;5057559;28;20040;-65
2021/05/15 01:02:10;;;;;;;2.33;0.82;;;;;;;9.41;75.41;98163.97;5063641;28;20120;-65
2021/05/15 01:04:36;;;;;;;0.50;0.30;;;;;;;9.42;75.55;98169.16;5072504;28;20090;-65
2021/05/15 01:07:03;;;;;;;3.25;0.47;;;;;;;9.35;75.89;98168.34;5073805;28;22055;-66
2021/05/15 01:09:29;;;;;;;0.90;0.43;;;;;;;9.29;76.34;98174.56;5080696;28;20058;-65
2021/05/15 01:11:54;;;;;;;1.83;0.50;;;;;;;9.22;76.78;98176.44;5077853;28;20032;-65
2021/05/15 01:14:19;;;;;;;1.02;0.60;;;;;;;9.15;76.95;98171.06;5057950;28;20033;-65
2021/05/15 01:16:45;;;;;;;1.00;0.40;;;;;;;9.15;77.10;98178.34;5080365;28;20401;-65
2021/05/15 01:19:13;;;;;;;0.63;0.50;;;;;;;9.08;77.04;98175.66;5068093;28;20063;-65
2021/05/15 01:21:38;;;;;;;2.05;0.47;;;;;;;8.94;77.71;98177.53;5064055;28;20020;-65
2021/05/15 01:24:04;;;;;;;1.27;0.40;;;;;;;8.89;77.54;98181.91;5076360;28;20480;-65
2021/05/15 01:26:32;;;;;;;0.93;0.40;;;;;;;8.88;77.48;98175.69;5078123;28;20480;-65
2021/05/15 01:29:00;;;;;;;2.55;0.60;;;;;;;8.85;77.71;98173.38;5076818;28;20530;-65
2021/05/15 01:31:27;;;;;;;2.15;0.80;;;;;;;8.78;78.15;98172.56;5074664;28;20032;-65
2021/05/15 01:33:53;;;;;;;1.02;0.50;;;;;;;8.65;78.01;98162.59;5066520;28;20070;-65
2021/05/15 01:36:19;;;;;;;1.00;0.43;;;;;;;8.70;78.14;98173.59;5076575;28;20051;-66
2021/05/15 01:38:45;;;;;;;1.25;0.70;;;;;;;8.66;78.29;98166.13;5070758;28;20074;-66
2021/05/15 01:41:13;;;;;;;0.88;0.40;;;;;;;8.68;77.61;98151.38;5070884;28;20029;-66
2021/05/15 01:43:39;;;;;;;0.85;0.60;;;;;;;8.70;77.66;98172.78;5077602;28;20031;-66
2021/05/15 01:46:06;;;;;;;2.60;0.65;;;;;;;8.66;78.20;98168.81;5083337;28;20029;-66
2021/05/15 01:48:31;;;;;;;2.20;0.40;;;;;;;8.65;78.01;98172.56;5064783;28;20020;-66
2021/05/15 01:50:58;;;;;;;2.50;0.50;;;;;;;8.63;77.95;98169.22;5052566;28;20105;-66
2021/05/15 01:53:25;;;;;;;0.98;0.50;;;;;;;8.47;78.24;98141.63;5061554;28;20081;-66
2021/05/15 01:55:52;;;;;;;2.47;0.52;;;;;;;8.58;78.46;98171.72;5060074;28;20036;-66
2021/05/15 01:58:17;;;;;;;0.95;0.57;;;;;;;8.52;78.21;98166.09;5086900;28;20551;-66
2021/05/15 02:00:42;;;;;;;1.88;0.60;;;;;;;8.45;78.71;98157.19;5062723;28;20052;-66
2021/05/15 02:03:08;;;;;;;0.90;0.50;;;;;;;8.48;78.48;98166.72;5083303;28;20504;-67
2021/05/15 02:05:33;;;;;;;2.55;0.63;;;;;;;8.39;78.75;98163.41;5063361;28;20026;-66
2021/05/15 02:07:59;;;;;;;0.80;0.68;;;;;;;8.41;78.44;98163.19;5071462;28;20032;-66
2021/05/15 02:10:24;;;;;;;1.75;0.47;;;;;;;8.40;78.07;98162.34;5052286;28;20483;-66
2021/05/15 02:12:49;;;;;;;1.05;0.50;;;;;;;8.45;77.72;98167.13;5067946;28;20432;-66
2021/05/15 02:15:15;;;;;;;1.10;0.60;;;;;;;8.38;77.88;98148.22;5092556;28;20024;-66
2021/05/15 02:17:40;;;;;;;1.70;0.65;;;;;;;8.39;77.75;98155.31;5082135;28;20029;-67
2021/05/15 02:20:06;;;;;;;1.73;0.60;;;;;;;8.37;77.44;98148.44;5076307;28;20358;-65
2021/05/15 02:22:31;;;;;;;0.82;0.50;;;;;;;8.46;77.80;98156.16;5053698;28;20032;-66
2021/05/15 02:24:56;;;;;;;0.75;0.50;;;;;;;8.44;77.43;98150.13;5059703;28;20054;-66
2021/05/15 02:27:22;;;;;;;0.60;0.40;;;;;;;8.44;77.02;98146.63;5072386;28;20103;-65
2021/05/15 02:29:47;;;;;;;1.88;0.60;;;;;;;8.44;77.10;98152.81;5066526;28;20043;-65
2021/05/15 02:32:12;;;;;;;3.13;0.47;;;;;;;8.39;77.41;98152.63;5056934;28;20028;-66
2021/05/15 02:34:37;;;;;;;1.15;0.73;;;;;;;8.37;77.43;98151.94;5075481;28;20073;-65
2021/05/15 02:37:03;;;;;;;1.77;0.60;;;;;;;8.35;77.57;98144.06;5088557;28;20070;-66
2021/05/15 02:39:28;;;;;;;1.65;0.65;;;;;;;8.47;77.14;98155.09;5084236;28;20021;-65
2021/05/15 02:41:53;;;;;;;0.70;0.60;;;;;;;8.36;76.86;98120.66;5067849;28;20386;-66
2021/05/15 02:44:19;;;;;;;2.50;0.60;;;;;;;8.43;77.25;98142.25;5064712;28;20029;-65
2021/05/15 02:46:44;;;;;;;0.95;0.50;;;;;;;8.47;76.53;98136.25;5059431;28;20025;-65
2021/05/15 02:49:09;;;;;;;1.98;0.70;;;;;;;8.48;76.58;98131.66;5063978;28;20032;-65
2021/05/15 02:51:34;;;;;;;1.63;0.45;;;;;;;8.48;76.80;98126.28;5056435;28;20549;-65
2021/05/15 02:54:00;;;;;;;0.52;0.50;;;;;;;8.39;76.76;98117.56;5060751;28;20036;-66
2021/05/15 02:56:25;;;;;;;0.77;0.60;;;;;;;8.32;76.78;98108.63;5056739;28;20378;-65
2021/05/15 02:58:50;;;;;;;1.48;0.52;;;;;;;8.31;77.22;98123.13;5059875;28;20025;-65
2021/05/15 03:01:18;;;;;;;1.65;0.60;;;;;;;8.22;77.55;98122.47;5075088;28;20031;-65
2021/05/15 03:03:43;;;;;;;1.98;0.50;;;;;;;8.27;77.38;98125.41;5083949;28;20489;-65
2021/05/15 03:06:09;;;;;;;0.68;0.50;;;;;;;8.19;77.79;98117.50;5073857;28;20024;-65
2021/05/15 03:08:34;;;;;;;1.05;0.50;;;;;;;7.97;78.87;98113.34;5059744;28;20469;-66
2021/05/15 03:10:59;;;;;;;0.60;0.50;;;;;;;7.68;79.50;98121.53;5044205;28;20037;-67
2021/05/15 03:13:25;;;;;;;1.45;0.50;;;;;;;7.61;80.29;98122.53;5052119;28;20112;-66
2021/05/15 03:15:50;;;;;;;2.00;0.65;;;;;;;7.50;81.03;98126.63;5063819;28;20441;-66
2021/05/15 03:18:15;;;;;;;1.45;0.43;;;;;;;7.31;81.30;98130.03;5068899;28;20020;-66
2021/05/15 03:20:40;;;;;;;1.08;0.60;;;;;;;7.15;81.81;98118.59;5066738;28;20059;-66
2021/05/15 03:23:06;;;;;;;1.10;0.60;;;;;;;7.16;82.83;98117.56;5059039;28;20493;-65
2021/05/15 03:25:31;;;;;;;3.15;0.60;;;;;;;7.15;82.31;98123.97;5058256;28;20020;-66
2021/05/15 03:27:56;;;;;;;2.42;0.40;;;;;;;7.09;82.24;98129.31;5086334;28;20035;-66
2021/05/15 03:30:22;;;;;;;0.60;0.50;;;;;;;6.94;82.91;98115.97;5069238;28;20032;-65
2021/05/15 03:32:47;;;;;;;0.52;0.50;;;;;;;6.97;83.23;98126.34;5068483;28;20086;-65
2021/05/15 03:35:14;;;;;;;0.93;0.65;;;;;;;6.96;83.42;98130.06;5076033;28;20031;-66
2021/05/15 03:37:40;;;;;;;0.93;0.55;;;;;;;6.89;83.02;98124.66;5054473;28;20103;-65
2021/05/15 03:40:07;;;;;;;0.73;0.55;;;;;;;6.82;83.15;98129.13;5079918;28;20023;-65
2021/05/15 03:42:32;;;;;;;1.23;0.50;;;;;;;6.70;83.41;98111.88;5067007;28;20529;-65
2021/05/15 03:44:58;;;;;;;1.08;0.60;;;;;;;6.86;83.49;98126.88;5067932;28;20040;-65
2021/05/15 03:47:24;;;;;;;1.10;0.60;;;;;;;6.85;83.32;98123.34;5059515;28;20024;-66
2021/05/15 03:49:49;;;;;;;2.15;1.05;;;;;;;7.04;82.96;98135.28;5084630;28;20024;-66
2021/05/15 03:52:14;;;;;;;2.53;0.50;;;;;;;7.18;82.84;98137.03;5083485;28;20440;-66
2021/05/15 03:54:40;;;;;;;3.30;0.70;;;;;;;7.23;82.43;98139.09;5056081;28;20035;-67
2021/05/15 03:57:05;;;;;;;1.23;0.70;;;;;;;7.46;81.86;98128.06;5055605;28;20474;-66
2021/05/15 03:59:31;;;;;;;2.00;0.60;;;;;;;7.53;81.58;98133.47;5068377;28;20105;-66
2021/05/15 04:01:56;;;;;;;0.52;0.40;;;;;;;7.60;80.95;98127.09;5082193;28;20048;-67
2021/05/15 04:04:22;;;;;;;1.17;0.70;;;;;;;7.77;80.24;98118.66;5055555;28;20505;-67
2021/05/15 04:06:47;;;;;;;3.30;0.50;;;;;;;7.79;80.22;98119.28;5067862;28;20028;-67
2021/05/15 04:09:12;;;;;;;1.88;0.70;;;;;;;7.93;79.33;98122.84;5079867;28;20023;-67
2021/05/15 04:11:39;;;;;;;2.08;0.57;;;;;;;8.12;78.89;98119.34;5069876;28;20028;-69
2021/05/15 04:14:21;;;;;;;2.60;0.90;;;;;;;8.25;78.32;98121.25;5061614;28;20444;-74
2021/05/15 04:19:30;;;;;;;1.80;0.77;;;;;;;8.33;78.59;98102.19;5067327;28;20026;-73
2021/05/15 04:21:56;;;;;;;1.50;0.75;;;;;;;8.62;78.36;98116.31;5074969;28;20467;-69
2021/05/15 04:24:25;;;;;;;1.48;0.70;;;;;;;8.83;76.22;98105.34;5053730;28;20558;-71
2021/05/15 04:26:54;;;;;;;1.70;0.70;;;;;;;8.96;75.62;98107.16;5053462;28;20078;-71
2021/05/15 04:29:21;;;;;;;3.97;0.70;;;;;;;9.28;74.79;98110.84;5073275;28;20024;-71
2021/05/15 04:31:46;;;;;;;0.70;0.40;;;;;;;9.34;74.31;98120.78;5074257;22;20128;-72
2021/05/15 04:34:12;;;;;;;2.25;0.70;;;;;;;9.33;74.09;98113.75;5074851;28;20099;-72
2021/05/15 04:36:37;;;;;;;0.90;0.90;;;;;;;9.33;74.09;98108.34;5086911;28;20032;-70
2021/05/15 04:39:03;;;;;;;1.40;0.70;;;;;;;9.25;74.63;98113.97;5091630;28;20031;-71
2021/05/15 04:41:29;;;;;;;1.92;1.02;;;;;;;9.33;74.35;98118.31;5088325;28;20111;-71
2021/05/15 04:43:54;;;;;;;1.67;0.90;;;;;;;9.13;74.93;98108.38;5058052;28;20067;-70
2021/05/15 04:46:19;;;;;;;1.05;0.60;;;;;;;9.20;74.67;98111.06;5080431;28;20024;-72
2021/05/15 04:48:45;;;;;;;1.63;0.57;;;;;;;9.24;74.98;98115.00;5068185;28;20025;-69
2021/05/15 04:51:11;;;;;;;1.60;0.57;;;;;;;9.12;74.72;98100.50;5069462;28;20024;-75
2021/05/15 04:53:37;;;;;;;1.30;0.80;;;;;;;9.30;75.06;98119.56;5068385;28;20024;-72
2021/05/15 04:56:03;;;;;;;2.00;0.65;;;;;;;9.28;75.05;98105.44;5078646;28;20466;-71
2021/05/15 04:58:29;;;;;;;1.52;0.80;;;;;;;9.36;74.84;98107.09;5074592;28;20461;-70
2021/05/15 05:00:54;;;;;;;1.17;0.60;;;;;;;9.54;74.81;98120.72;5076102;28;20036;-69
2021/05/15 05:03:19;;;;;;;1.10;0.70;;;;;;;9.54;74.31;98114.50;5075759;28;20024;-71
2021/05/15 05:05:45;;;;;;;2.15;0.73;;;;;;;9.63;74.50;98118.59;5079345;28;20020;-71
2021/05/15 05:08:10;;;;;;;2.70;0.60;;;;;;;9.53;74.15;98096.63;5089293;28;20099;-70
2021/05/15 05:10:35;;;;;;;4.40;0.65;;;;;;;9.86;73.71;98113.50;5073713;28;20027;-71
2021/05/15 05:13:04;;;;;;;5.30;0.88;;;;;;;9.96;73.21;98126.56;5061474;28;20107;-71
2021/05/15 05:15:30;;;;;;;1.60;0.60;;;;;;;9.91;73.43;98110.16;5067113;28;20116;-69
2021/05/15 05:17:55;;;;;;;2.88;0.70;;;;;;;9.99;73.06;98112.63;5061464;28;20028;-71
2021/05/15 05:20:21;;;;;;;2.22;0.60;;;;;;;10.14;73.15;98125.00;5076610;28;20481;-64
2021/05/15 05:22:46;;;;;;;1.48;0.60;;;;;;;10.43;72.57;98113.63;5081234;28;20020;-64
2021/05/15 05:25:13;;;;;;;1.00;0.40;;;;;;;10.65;71.02;98114.06;5076071;28;20465;-74
2021/05/15 05:27:45;;;;;;;1.48;0.60;;;;;;;10.66;70.86;98099.50;5061571;28;20366;-69
2021/05/15 05:30:11;;;;;;;3.35;0.60;;;;;;;10.92;70.28;98101.13;5079226;28;20070;-67
2021/05/15 05:32:36;;;;;;;3.08;0.73;;;;;;;11.22;69.18;98091.47;5075580;28;20028;-70
2021/05/15 05:35:02;;;;;;;1.20;0.70;;;;;;;11.34;68.29;98092.34;5077715;28;20033;-73
2021/05/15 05:37:27;;;;;;;5.72;0.60;;;;;;;11.74;67.52;98102.75;5061173;28;20023;-71
2021/05/15 05:39:54;;;;;;;0.93;0.50;;;;;;;11.94;66.72;98116.88;5067105;28;20025;-63
2021/05/15 05:42:20;;;;;;;1.05;0.50;;;;;;;12.48;65.33;98114.22;5074487;28;20037;-63
2021/05/15 05:44:45;;;;;;;2.08;0.70;;;;;;;12.68;64.94;98101.19;5059832;28;20031;-63
2021/05/15 05:47:10;;;;;;;2.55;0.70;;;;;;;13.08;64.70;98111.34;5077506;28;20389;-63
2021/05/15 05:49:35;;;;;;;1.00;0.60;;;;;;;13.58;62.72;98085.56;5058334;28;20016;-65
2021/05/15 05:52:01;;;;;;;2.35;0.50;;;;;;;13.53;62.55;98101.75;5076255;28;20040;-63
2021/05/15 05:54:26;;;;;;;0.85;0.40;;;;;;;13.50;61.99;98099.53;5072535;28;20020;-62
2021/05/15 05:56:51;;;;;;;1.33;0.35;;;;;;;13.47;62.17;98094.56;5078888;28;20027;-63
2021/05/15 05:59:16;;;;;;;2.33;0.40;;;;;;;13.34;62.59;98101.91;5077846;28;20031;-62
2021/05/15 06:01:42;;;;;;;0.68;0.60;;;;;;;13.10;63.25;98094.81;5060118;28;20055;-62
2021/05/15 06:04:07;;;;;;;4.45;0.50;;;;;;;12.84;63.66;98099.66;5073433;28;20035;-64
2021/05/15 06:06:32;;;;;;;3.47;0.50;;;;;;;12.78;64.17;98094.31;5073471;28;20620;-64
2021/05/15 06:08:58;;;;;;;4.75;0.60;;;;;;;12.66;64.19;98086.19;5074231;28;20047;-65
2021/05/15 06:11:24;;;;;;;2.00;0.40;;;;;;;12.62;64.70;98080.38;5075436;28;20032;-65
2021/05/15 06:13:49;;;;;;;4.53;0.55;;;;;;;12.86;63.83;98083.97;5077494;28;20024;-62
2021/05/15 06:16:14;;;;;;;1.38;0.50;;;;;;;12.82;64.19;98081.94;5076295;28;20104;-63
2021/05/15 06:18:39;;;;;;;0.80;0.55;;;;;;;13.20;63.17;98089.59;5081918;28;20024;-65
2021/05/15 06:21:05;;;;;;;1.10;0.50;;;;;;;13.51;62.00;98095.72;5084108;28;20409;-63
2021/05/15 06:23:30;;;;;;;0.85;0.50;;;;;;;13.78;61.00;98096.84;5080387;28;20103;-65
2021/05/15 06:25:55;;;;;;;0.90;0.40;;;;;;;13.93;60.64;98081.88;5081496;28;20041;-64
2021/05/15 06:28:21;;;;;;;1.17;0.47;;;;;;;14.76;58.68;98085.00;5080433;28;20036;-65
2021/05/15 06:30:47;;;;;;;1.60;0.88;;;;;;;15.33;56.79;98085.59;5081854;28;20028;-64
2021/05/15 06:33:12;;;;;;;2.28;0.90;;;;;;;15.90;54.99;98072.66;5076342;28;20028;-63
2021/05/15 06:35:38;;;;;;;0.60;0.30;;;;;;;17.25;51.13;98069.75;5075727;28;20116;-63
2021/05/15 06:38:05;;;;;;;3.47;0.57;;;;;;;17.45;50.76;98070.97;5073799;28;20504;-64
2021/05/15 06:40:31;;;;;;;1.58;0.50;;;;;;;18.27;48.99;98082.22;5063738;28;20031;-64
2021/05/15 06:42:56;;;;;;;0.73;0.52;;;;;;;19.21;46.58;98066.34;5077606;28;20028;-65
2021/05/15 06:45:21;;;;;;;2.92;0.43;;;;;;;20.40;44.44;98067.47;5075235;28;20024;-64
2021/05/15 06:47:47;;;;;;;1.80;0.52;;;;;;;22.29;40.51;98058.06;5072298;28;20088;-64
2021/05/15 06:50:13;;;;;;;0.98;0.45;;;;;;;23.13;39.17;98060.06;5078085;28;20042;-65
2021/05/15 06:52:39;;;;;;;7.07;0.57;;;;;;;23.80;37.11;98045.78;5072178;28;20028;-65
2021/05/15 06:55:05;;;;;;;0.80;0.28;;;;;;;24.33;36.94;98065.66;5076382;28;20662;-65
2021/05/15 06:57:31;;;;;;;0.57;0.17;;;;;;;25.86;33.95;98036.81;5072402;28;20031;-71
2021/05/15 06:59:56;;;;;;;0.40;0.30;;;;;;;25.11;35.50;98044.91;5078828;28;20020;-67
2021/05/15 07:02:22;;;;;;;0.50;0.30;;;;;;;24.61;34.83;98050.63;5083366;28;20024;-68
2021/05/15 07:04:47;;;;;;;2.55;0.28;;;;;;;24.41;34.40;98048.31;5078025;28;20028;-68
2021/05/15 07:07:12;;;;;;;0.57;0.20;;;;;;;20.81;40.21;98059.75;5054895;28;20027;-66
2021/05/15 07:09:38;;;;;;;1.35;0.30;;;;;;;18.94;44.18;98059.25;5082116;28;20061;-71
2021/05/15 07:12:03;;;;;;;0.95;0.40;;;;;;;21.35;39.81;98047.69;5085832;28;20036;-72
2021/05/15 07:14:29;;;;;;;1.20;0.30;;;;;;;23.99;35.72;98047.59;5060979;28;20028;-73
2021/05/15 07:16:54;;;;;;;2.70;0.43;;;;;;;24.81;34.85;98034.63;5084144;28;20056;-72
2021/05/15 07:19:20;;;;;;;0.70;0.20;;;;;;;24.18;35.23;98031.72;5092257;28;20062;-72
2021/05/15 07:21:45;;;;;;;1.13;0.40;;;;;;;22.05;38.51;98046.28;5086332;28;20031;-73
2021/05/15 07:24:10;;;;;;;4.07;0.32;;;;;;;19.47;42.74;98028.69;5060466;28;20027;-72
2021/05/15 07:26:36;;;;;;;1.48;0.60;;;;;;;16.79;48.61;98058.53;5081230;28;20077;-73
2021/05/15 07:29:02;;;;;;;2.03;0.50;;;;;;;16.62;49.51;98053.16;5072037;28;20020;-72
2021/05/15 07:31:28;;;;;;;0.55;0.20;;;;;;;15.58;52.10;98054.28;5073174;28;20047;-72
2021/05/15 07:33:53;;;;;;;0.70;0.30;;;;;;;15.56;52.63;98057.28;5072404;28;20408;-67
2021/05/15 07:36:18;;;;;;;0.45;0.22;;;;;;;15.21;53.18;98048.63;5083602;28;20047;-71
2021/05/15 07:38:47;;;;;;;0.77;0.30;;;;;;;15.51;53.08;98043.56;5059775;28;20081;-70
2021/05/15 07:41:12;;;;;;;0.90;0.28;;;;;;;14.84;54.75;98054.63;5077919;28;20048;-69
2021/05/15 07:43:38;;;;;;;1.45;0.40;;;;;;;14.99;55.28;98051.31;5077924;28;20063;-69
2021/05/15 07:46:03;;;;;;;0.68;0.20;;;;;;;15.04;54.75;98046.78;5079151;28;20083;-70
2021/05/15 07:48:29;;;;;;;0.95;0.30;;;;;;;15.15;54.71;98045.00;5071125;28;20583;-70
2021/05/15 07:50:59;;;;;;;0.93;0.30;;;;;;;15.02;54.63;98051.63;5078980;28;20443;-71
2021/05/15 07:53:25;;;;;;;1.70;0.30;;;;;;;14.95;54.95;98031.09;5071593;28;20082;-70
2021/05/15 07:55:52;;;;;;;1.13;0.35;;;;;;;15.10;54.66;98047.66;5054176;28;20052;-71
2021/05/15 07:58:18;;;;;;;0.32;0.30;;;;;;;15.28;54.35;98043.81;5053821;28;20024;-71
2021/05/15 08:00:44;;;;;;;1.38;0.52;;;;;;;15.62;53.05;98052.69;5081467;28;20055;-71
2021/05/15 08:03:10;;;;;;;0.50;0.30;;;;;;;16.12;52.26;98045.34;5081660;28;20097;-71
2021/05/15 08:05:35;;;;;;;0.47;0.30;;;;;;;16.36;51.78;98027.56;5064543;28;20031;-71
2021/05/15 08:08:02;;;;;;;1.13;0.32;;;;;;;16.58;51.06;98032.94;5072978;28;20094;-70
2021/05/15 08:10:28;;;;;;;1.10;0.40;;;;;;;17.16;50.32;98027.63;5071743;28;20021;-71
2021/05/15 08:12:54;;;;;;;3.30;0.40;;;;;;;17.95;48.69;98033.97;5076320;28;20032;-72
2021/05/15 08:15:19;;;;;;;0.47;0.30;;;;;;;17.69;48.58;98033.84;5054012;28;20531;-73
2021/05/15 08:17:44;;;;;;;2.10;0.40;;;;;;;17.74;48.23;98041.28;5085268;28;20105;-73
2021/05/15 08:20:10;;;;;;;0.85;0.30;;;;;;;17.48;48.71;98027.50;5074900;28;20376;-75
2021/05/15 08:22:36;;;;;;;0.32;0.22;;;;;;;17.75;48.15;98024.56;5073480;28;20051;-76
2021/05/15 08:25:01;;;;;;;0.50;0.30;;;;;;;17.27;49.39;98033.97;5074681;28;20027;-70
2021/05/15 08:27:26;;;;;;;0.73;0.30;;;;;;;17.34;49.28;98017.28;5075231;28;20074;-75
2021/05/15 08:29:52;;;;;;;0.98;0.40;;;;;;;17.04;50.07;98016.06;5080213;28;20047;-69
2021/05/15 08:32:18;;;;;;;1.48;0.90;;;;;;;17.42;48.84;98028.56;5071054;28;20036;-70
2021/05/15 08:34:44;;;;;;;1.35;0.30;;;;;;;16.38;51.09;98025.41;5055529;28;20069;-70
2021/05/15 08:37:09;;;;;;;0.82;0.40;;;;;;;17.23;49.96;98014.50;5076859;28;20474;-74
2021/05/15 08:39:34;;;;;;;1.38;0.30;;;;;;;17.64;48.42;98031.09;5075298;28;20032;-70
2021/05/15 08:42:00;;;;;;;1.05;0.38;;;;;;;17.15;49.24;98014.22;5085219;28;20024;-72
2021/05/15 08:44:27;;;;;;;2.13;0.32;;;;;;;17.15;49.63;98025.97;5072106;28;20057;-73
2021/05/15 08:46:56;;;;;;;0.95;0.40;;;;;;;16.34;51.10;98012.53;5081822;28;20416;-75
2021/05/15 08:49:22;;;;;;;1.33;0.50;;;;;;;16.57;51.60;98011.34;5087875;28;20485;-76
2021/05/15 08:51:53;;;;;;;1.58;0.40;;;;;;;17.12;50.42;98015.56;5066742;28;20036;-72
2021/05/15 08:54:21;;;;;;;0.63;0.40;;;;;;;16.74;51.26;98006.56;5075679;28;20081;-72
2021/05/15 08:56:48;;;;;;;1.63;0.50;;;;;;;17.35;49.81;98002.56;5084678;28;20024;-74
2021/05/15 08:59:14;;;;;;;0.52;0.38;;;;;;;17.42;50.63;98005.84;5087667;28;20103;-74
2021/05/15 09:01:42;;;;;;;1.58;0.30;;;;;;;17.08;49.86;97996.16;5079216;28;20490;-75
2021/05/15 09:04:07;;;;;;;1.67;0.35;;;;;;;17.78;49.99;97982.16;5079383;28;20024;-74
2021/05/15 09:06:32;;;;;;;1.02;0.45;;;;;;;17.58;49.96;97988.44;5075000;28;20023;-73
2021/05/15 09:08:58;;;;;;;0.60;0.38;;;;;;;19.18;46.50;97987.38;5075783;28;20028;-73
2021/05/15 09:11:23;;;;;;;0.77;0.40;;;;;;;21.60;40.69;97963.19;5057845;28;20021;-70
2021/05/15 09:13:53;;;;;;;2.88;0.80;;;;;;;21.13;42.32;97987.66;5068091;28;20027;-76
2021/05/15 09:16:19;;;;;;;2.15;0.30;;;;;;;19.10;45.15;97972.31;5077839;28;20024;-73
2021/05/15 09:18:45;;;;;;;2.30;0.40;;;;;;;18.74;45.40;97982.53;5061054;28;20070;-72
2021/05/15 09:21:16;;;;;;;0.68;0.40;;;;;;;18.91;45.06;97966.59;5062223;28;20029;-75
2021/05/15 09:23:44;;;;;;;0.60;0.20;;;;;;;21.03;41.80;97987.78;5085200;28;20036;-71
2021/05/15 09:26:12;;;;;;;4.57;0.50;;;;;;;20.75;41.13;97993.03;5064675;28;20028;-68
2021/05/15 09:28:46;;;;;;;0.50;0.30;;;;;;;21.37;40.83;97975.84;5092319;28;20527;-71
2021/05/15 09:31:20;;;;;;;1.40;0.30;;;;;;;21.07;40.54;97974.28;5058805;28;20486;-68
2021/05/15 09:34:00;;;;;;;1.02;0.30;;;;;;;19.76;43.25;97984.94;5072083;28;20033;-68
2021/05/15 09:36:26;;;;;;;2.03;0.60;;;;;;;21.27;40.97;97975.94;5073809;28;20047;-68
2021/05/15 09:39:12;;;;;;;1.10;0.40;;;;;;;20.93;40.29;97980.47;5075063;28;20020;-67
2021/05/15 09:41:39;;;;;;;1.42;0.40;;;;;;;19.84;42.90;97975.28;5073388;28;20115;-67
2021/05/15 09:44:06;;;;;;;1.55;0.40;;;;;;;18.90;44.49;97970.44;5055898;28;20478;-67
2021/05/15 09:46:34;;;;;;;1.23;0.40;;;;;;;17.88;46.21;97970.47;5074404;28;20118;-70
2021/05/15 09:49:00;;;;;;;0.80;0.30;;;;;;;18.47;46.20;97966.38;5077680;28;20032;-70
2021/05/15 09:51:25;;;;;;;0.35;0.35;;;;;;;19.64;43.29;97946.81;5083178;28;20042;-70
2021/05/15 09:53:51;;;;;;;0.30;0.30;;;;;;;18.81;45.16;97947.44;5078225;28;20034;-70
2021/05/15 09:56:27;;;;;;;1.25;0.30;;;;;;;19.13;43.71;97957.22;5080509;28;20382;-70
2021/05/15 09:58:52;;;;;;;4.45;0.70;;;;;;;20.19;42.46;97935.75;5057571;28;20020;-69
2021/05/15 10:01:18;;;;;;;1.02;0.40;;;;;;;21.28;40.22;97936.34;5073171;28;20438;-71
2021/05/15 10:03:47;;;;;;;0.30;0.30;;;;;;;23.04;38.22;97918.41;5073521;28;20664;-69
2021/05/15 10:06:15;;;;;;;1.67;0.47;;;;;;;23.97;35.87;97917.22;5073998;28;20027;-69
2021/05/15 10:08:41;;;;;;;0.43;0.30;;;;;;;23.94;36.34;97912.34;5077057;28;20024;-68
2021/05/15 10:11:08;;;;;;;1.38;0.30;;;;;;;22.46;38.86;97911.47;5073377;28;20025;-68
2021/05/15 10:13:35;;;;;;;0.70;0.40;;;;;;;21.61;39.74;97913.34;5055254;28;20478;-68
2021/05/15 10:16:01;;;;;;;0.85;0.38;;;;;;;21.53;39.96;97904.94;5079512;28;20052;-68
2021/05/15 10:18:28;;;;;;;1.67;0.30;;;;;;;24.62;35.29;97899.31;5073024;28;20028;-68
2021/05/15 10:20:54;;;;;;;0.98;0.30;;;;;;;25.21;33.28;97904.66;5075026;28;20032;-68
2021/05/15 10:23:28;;;;;;;1.30;0.45;;;;;;;24.02;34.99;97892.25;5075478;28;20024;-68
2021/05/15 10:26:15;;;;;;;1.55;0.32;;;;;;;22.75;37.31;97888.34;5083098;28;20088;-67
2021/05/15 10:28:41;;;;;;;1.23;0.40;;;;;;;23.62;36.52;97883.75;5071046;28;20504;-68
2021/05/15 10:31:11;;;;;;;2.95;0.50;;;;;;;22.90;35.71;97885.28;5112500;22;20007;-67
2021/05/15 10:33:38;;;;;;;2.25;0.47;;;;;;;24.94;34.12;97873.25;5074577;28;20485;-67
2021/05/15 10:36:05;;;;;;;1.45;0.38;;;;;;;25.97;32.20;97876.56;5078032;28;20142;-67
2021/05/15 10:38:37;;;;;;;1.00;0.30;;;;;;;25.99;31.82;97874.25;5077547;28;20024;-66
2021/05/15 10:41:14;;;;;;;0.85;0.20;;;;;;;26.16;31.96;97865.13;5073453;28;20024;-66
2021/05/15 10:43:42;;;;;;;0.95;0.43;;;;;;;25.31;32.48;97868.34;5054404;28;20021;-66
2021/05/15 10:46:15;;;;;;;0.30;0.28;;;;;;;26.32;31.35;97843.22;5072575;28;20055;-65
2021/05/15 10:48:41;;;;;;;1.15;0.20;;;;;;;26.49;31.47;97848.75;5072665;28;20078;-66
2021/05/15 10:51:08;;;;;;;1.45;0.30;;;;;;;24.96;32.27;97843.31;5080766;28;20024;-65
2021/05/15 10:53:33;;;;;;;1.30;0.35;;;;;;;20.95;38.22;97853.69;5076634;28;20050;-68
2021/05/15 10:56:14;;;;;;;1.65;0.30;;;;;;;20.72;39.74;97853.41;5055697;28;20028;-66
2021/05/15 10:58:50;;;;;;;0.88;0.20;;;;;;;22.44;37.42;97841.22;5062553;28;20024;-67
2021/05/15 11:01:20;;;;;;;0.68;0.25;;;;;;;21.98;37.08;97833.75;5082119;28;20025;-67
2021/05/15 11:03:46;;;;;;;1.13;0.30;;;;;;;21.67;37.80;97837.84;5071742;28;20394;-67
2021/05/15 11:06:20;;;;;;;3.38;0.43;;;;;;;20.92;39.48;97844.06;5054354;28;20024;-65
2021/05/15 11:09:03;;;;;;;1.30;0.30;;;;;;;21.31;38.97;97833.94;5054072;28;20028;-65
2021/05/15 11:11:36;;;;;;;2.00;0.20;;;;;;;21.28;38.25;97823.53;5091172;28;20083;-65
2021/05/15 11:14:03;;;;;;;0.88;0.30;;;;;;;20.73;40.69;97822.06;5056685;28;20451;-65
2021/05/15 11:16:32;;;;;;;0.85;0.38;;;;;;;21.62;42.21;97818.63;5073111;28;20162;-65
2021/05/15 11:19:06;;;;;;;1.67;0.28;;;;;;;21.09;42.29;97815.25;5073065;28;20028;-65
2021/05/15 11:21:38;;;;;;;2.50;0.20;;;;;;;20.36;43.76;97811.75;5074082;28;20025;-64
2021/05/15 11:24:05;;;;;;;0.50;0.28;;;;;;;19.70;44.91;97818.66;5071849;28;20028;-64
2021/05/15 11:26:49;;;;;;;1.42;0.30;;;;;;;18.82;48.27;97812.88;5086893;28;20020;-66
2021/05/15 11:29:14;;;;;;;1.08;0.45;;;;;;;18.12;48.04;97815.53;5071711;28;20043;-65
2021/05/15 11:31:40;;;;;;;1.25;0.35;;;;;;;17.53;50.07;97830.59;5068918;28;20032;-66
2021/05/15 11:34:10;;;;;;;5.10;0.57;;;;;;;16.38;57.23;97833.50;5061950;28;20028;-66
2021/05/15 11:36:40;;;;;;;4.43;0.68;;;;;;;15.67;62.49;97834.59;5072808;28;20027;-67